sensor_id;sensor_type;location;lat;lon;timestamp;pressure;altitude;pressure_sealevel;temperature;humidity
54554;BME280;40450;55.848;-3.572;2023-02-01T00:01:38;99156.12;;;0.13;96.32
54554;BME280;40450;55.848;-3.572;2023-02-01T00:04:08;99151.24;;;0.71;95.70
54554;BME280;40450;55.848;-3.572;2023-02-01T00:06:39;99154.34;;;0.31;95.96
54554;BME280;40450;55.848;-3.572;2023-02-01T00:09:09;99167.56;;;0.86;94.77
54554;BME280;40450;55.848;-3.572;2023-02-01T00:11:39;99155.41;;;0.16;96.24
54554;BME280;40450;55.848;-3.572;2023-02-01T00:14:10;99152.78;;;-0.95;98.14
54554;BME280;40450;55.848;-3.572;2023-02-01T00:16:41;99139.94;;;-0.68;98.25
54554;BME280;40450;55.848;-3.572;2023-02-01T00:19:14;99148.85;;;-0.06;97.60
54554;BME280;40450;55.848;-3.572;2023-02-01T00:21:41;99153.20;;;0.44;96.56
54554;BME280;40450;55.848;-3.572;2023-02-01T00:24:12;99150.20;;;1.00;95.36
54554;BME280;40450;55.848;-3.572;2023-02-01T00:26:44;99146.24;;;1.77;94.05
54554;BME280;40450;55.848;-3.572;2023-02-01T00:29:14;99162.33;;;0.89;95.25
54554;BME280;40450;55.848;-3.572;2023-02-01T00:31:43;99151.93;;;1.29;94.94
54554;BME280;40450;55.848;-3.572;2023-02-01T00:34:15;99145.39;;;0.76;95.85
54554;BME280;40450;55.848;-3.572;2023-02-01T00:36:44;99142.74;;;-0.12;97.21
54554;BME280;40450;55.848;-3.572;2023-02-01T00:39:17;99138.85;;;1.14;95.39
54554;BME280;40450;55.848;-3.572;2023-02-01T00:41:45;99137.00;;;1.93;94.30
54554;BME280;40450;55.848;-3.572;2023-02-01T00:44:19;99135.70;;;2.02;94.13
54554;BME280;40450;55.848;-3.572;2023-02-01T00:46:46;99121.59;;;1.39;94.87
54554;BME280;40450;55.848;-3.572;2023-02-01T00:49:18;99119.11;;;0.90;95.62
54554;BME280;40450;55.848;-3.572;2023-02-01T00:51:46;99119.65;;;0.99;95.83
54554;BME280;40450;55.848;-3.572;2023-02-01T00:54:16;99118.96;;;0.59;96.21
54554;BME280;40450;55.848;-3.572;2023-02-01T00:56:47;99113.70;;;-0.27;98.19
54554;BME280;40450;55.848;-3.572;2023-02-01T00:59:17;99126.54;;;0.57;96.86
54554;BME280;40450;55.848;-3.572;2023-02-01T01:01:48;99118.92;;;-0.17;97.98
54554;BME280;40450;55.848;-3.572;2023-02-01T01:04:18;99121.67;;;0.26;97.49
54554;BME280;40450;55.848;-3.572;2023-02-01T01:06:48;99125.73;;;0.45;97.16
54554;BME280;40450;55.848;-3.572;2023-02-01T01:09:19;99105.28;;;0.66;96.67
54554;BME280;40450;55.848;-3.572;2023-02-01T01:11:49;99107.71;;;0.78;96.92
54554;BME280;40450;55.848;-3.572;2023-02-01T01:14:20;99114.52;;;0.93;96.60
54554;BME280;40450;55.848;-3.572;2023-02-01T01:16:50;99119.47;;;1.24;96.50
54554;BME280;40450;55.848;-3.572;2023-02-01T01:19:20;99102.25;;;1.09;97.11
54554;BME280;40450;55.848;-3.572;2023-02-01T01:21:50;99107.30;;;0.93;96.98
54554;BME280;40450;55.848;-3.572;2023-02-01T01:24:21;99100.39;;;1.23;96.86
54554;BME280;40450;55.848;-3.572;2023-02-01T01:26:51;99117.54;;;0.96;96.93
54554;BME280;40450;55.848;-3.572;2023-02-01T01:29:22;99099.44;;;1.39;96.79
54554;BME280;40450;55.848;-3.572;2023-02-01T01:31:52;99083.06;;;1.45;96.77
54554;BME280;40450;55.848;-3.572;2023-02-01T01:34:22;99082.66;;;1.42;96.09
54554;BME280;40450;55.848;-3.572;2023-02-01T01:36:53;99088.83;;;0.97;97.14
54554;BME280;40450;55.848;-3.572;2023-02-01T01:39:23;99091.95;;;1.68;96.48
54554;BME280;40450;55.848;-3.572;2023-02-01T01:41:53;99079.22;;;2.10;94.91
54554;BME280;40450;55.848;-3.572;2023-02-01T01:46:54;99062.30;;;2.39;94.89
54554;BME280;40450;55.848;-3.572;2023-02-01T01:49:25;99060.16;;;2.60;94.27
54554;BME280;40450;55.848;-3.572;2023-02-01T01:51:56;99057.37;;;1.95;95.00
54554;BME280;40450;55.848;-3.572;2023-02-01T01:54:28;99063.29;;;2.19;94.80
54554;BME280;40450;55.848;-3.572;2023-02-01T01:56:57;99049.27;;;1.99;95.28
54554;BME280;40450;55.848;-3.572;2023-02-01T01:59:26;99043.57;;;1.51;95.70
54554;BME280;40450;55.848;-3.572;2023-02-01T02:01:56;99027.63;;;2.51;94.38
54554;BME280;40450;55.848;-3.572;2023-02-01T02:04:27;99032.01;;;2.43;94.39
54554;BME280;40450;55.848;-3.572;2023-02-01T02:07:00;99034.26;;;2.40;94.18
54554;BME280;40450;55.848;-3.572;2023-02-01T02:09:27;99024.66;;;2.37;94.17
54554;BME280;40450;55.848;-3.572;2023-02-01T02:11:58;99030.75;;;2.46;94.34
54554;BME280;40450;55.848;-3.572;2023-02-01T02:14:28;99026.96;;;2.38;94.57
54554;BME280;40450;55.848;-3.572;2023-02-01T02:17:07;99037.06;;;3.42;92.79
54554;BME280;40450;55.848;-3.572;2023-02-01T02:22:09;99045.53;;;2.40;94.79
54554;BME280;40450;55.848;-3.572;2023-02-01T02:24:37;99053.24;;;0.61;98.20
54554;BME280;40450;55.848;-3.572;2023-02-01T02:27:04;99049.39;;;0.79;97.90
54554;BME280;40450;55.848;-3.572;2023-02-01T02:29:39;99047.73;;;0.62;98.72
54554;BME280;40450;55.848;-3.572;2023-02-01T02:34:36;99040.00;;;0.08;99.15
54554;BME280;40450;55.848;-3.572;2023-02-01T02:37:07;99035.26;;;-0.58;100.00
54554;BME280;40450;55.848;-3.572;2023-02-01T02:39:41;99033.96;;;-0.62;100.00
54554;BME280;40450;55.848;-3.572;2023-02-01T02:42:08;99038.72;;;-0.80;100.00
54554;BME280;40450;55.848;-3.572;2023-02-01T02:44:37;99033.25;;;-1.88;100.00
54554;BME280;40450;55.848;-3.572;2023-02-01T02:47:09;99044.11;;;-0.85;100.00
54554;BME280;40450;55.848;-3.572;2023-02-01T02:49:36;99032.66;;;-1.79;100.00
54554;BME280;40450;55.848;-3.572;2023-02-01T02:52:07;99014.81;;;-1.91;100.00
54554;BME280;40450;55.848;-3.572;2023-02-01T02:54:36;98986.08;;;-1.54;100.00
54554;BME280;40450;55.848;-3.572;2023-02-01T02:57:07;98979.34;;;-1.41;100.00
54554;BME280;40450;55.848;-3.572;2023-02-01T02:59:35;98992.72;;;-1.46;100.00
54554;BME280;40450;55.848;-3.572;2023-02-01T03:02:06;98975.83;;;-1.26;100.00
54554;BME280;40450;55.848;-3.572;2023-02-01T03:04:36;98974.26;;;-1.13;100.00
54554;BME280;40450;55.848;-3.572;2023-02-01T03:07:13;98973.93;;;-0.54;99.57
54554;BME280;40450;55.848;-3.572;2023-02-01T03:09:37;98972.21;;;-0.37;99.10
54554;BME280;40450;55.848;-3.572;2023-02-01T03:12:11;98958.33;;;-0.48;99.57
54554;BME280;40450;55.848;-3.572;2023-02-01T03:14:40;98960.85;;;-1.17;100.00
54554;BME280;40450;55.848;-3.572;2023-02-01T03:17:11;98959.65;;;-0.62;100.00
54554;BME280;40450;55.848;-3.572;2023-02-01T03:19:40;98951.70;;;-0.37;99.89
54554;BME280;40450;55.848;-3.572;2023-02-01T03:22:12;98953.37;;;-0.09;99.63
54554;BME280;40450;55.848;-3.572;2023-02-01T03:24:43;98958.84;;;-0.12;99.74
54554;BME280;40450;55.848;-3.572;2023-02-01T03:27:14;98956.37;;;-0.07;99.48
54554;BME280;40450;55.848;-3.572;2023-02-01T03:29:48;98937.19;;;-0.08;99.61
54554;BME280;40450;55.848;-3.572;2023-02-01T03:32:11;98942.61;;;-0.03;99.63
54554;BME280;40450;55.848;-3.572;2023-02-01T03:37:15;98921.84;;;0.65;99.09
54554;BME280;40450;55.848;-3.572;2023-02-01T03:39:47;98902.22;;;0.57;99.52
54554;BME280;40450;55.848;-3.572;2023-02-01T03:42:16;98904.43;;;0.27;99.80
54554;BME280;40450;55.848;-3.572;2023-02-01T03:44:48;98897.80;;;0.69;99.31
54554;BME280;40450;55.848;-3.572;2023-02-01T03:47:16;98917.84;;;1.05;98.79
54554;BME280;40450;55.848;-3.572;2023-02-01T03:49:47;98911.30;;;0.15;99.67
54554;BME280;40450;55.848;-3.572;2023-02-01T03:52:18;98916.40;;;0.30;99.91
54554;BME280;40450;55.848;-3.572;2023-02-01T03:54:47;98918.51;;;0.44;99.93
54554;BME280;40450;55.848;-3.572;2023-02-01T03:57:19;98909.01;;;0.39;100.00
54554;BME280;40450;55.848;-3.572;2023-02-01T03:59:48;98912.43;;;0.60;99.56
54554;BME280;40450;55.848;-3.572;2023-02-01T04:02:17;98913.52;;;0.57;99.63
54554;BME280;40450;55.848;-3.572;2023-02-01T04:04:48;98921.62;;;0.59;99.42
54554;BME280;40450;55.848;-3.572;2023-02-01T04:07:18;98911.91;;;1.12;98.81
54554;BME280;40450;55.848;-3.572;2023-02-01T04:09:56;98922.80;;;0.25;100.00
54554;BME280;40450;55.848;-3.572;2023-02-01T04:12:18;98916.06;;;1.06;99.11
54554;BME280;40450;55.848;-3.572;2023-02-01T04:14:48;98919.96;;;0.99;99.02
54554;BME280;40450;55.848;-3.572;2023-02-01T04:17:18;98913.55;;;0.73;99.27
54554;BME280;40450;55.848;-3.572;2023-02-01T04:19:50;98910.55;;;1.37;98.33
54554;BME280;40450;55.848;-3.572;2023-02-01T04:22:19;98920.84;;;1.47;97.85
54554;BME280;40450;55.848;-3.572;2023-02-01T04:24:51;98927.17;;;1.37;97.68
54554;BME280;40450;55.848;-3.572;2023-02-01T04:27:20;98931.12;;;0.86;99.04
54554;BME280;40450;55.848;-3.572;2023-02-01T04:29:51;98956.49;;;0.49;99.19
54554;BME280;40450;55.848;-3.572;2023-02-01T04:32:21;98962.53;;;1.23;98.38
54554;BME280;40450;55.848;-3.572;2023-02-01T04:34:52;98985.97;;;1.99;97.22
54554;BME280;40450;55.848;-3.572;2023-02-01T04:37:22;98987.67;;;2.30;96.80
54554;BME280;40450;55.848;-3.572;2023-02-01T04:39:52;98988.71;;;1.77;97.21
54554;BME280;40450;55.848;-3.572;2023-02-01T04:42:23;98976.61;;;1.81;97.45
54554;BME280;40450;55.848;-3.572;2023-02-01T04:44:53;98972.02;;;1.23;97.75
54554;BME280;40450;55.848;-3.572;2023-02-01T04:47:24;98988.91;;;0.48;98.98
54554;BME280;40450;55.848;-3.572;2023-02-01T04:49:54;98986.87;;;1.37;97.92
54554;BME280;40450;55.848;-3.572;2023-02-01T04:52:24;98987.12;;;1.49;97.46
54554;BME280;40450;55.848;-3.572;2023-02-01T04:54:55;98997.90;;;2.07;97.26
54554;BME280;40450;55.848;-3.572;2023-02-01T04:57:25;99011.16;;;2.09;96.87
54554;BME280;40450;55.848;-3.572;2023-02-01T04:59:56;99018.22;;;1.34;97.77
54554;BME280;40450;55.848;-3.572;2023-02-01T05:02:26;99036.22;;;1.46;98.07
54554;BME280;40450;55.848;-3.572;2023-02-01T05:04:57;99043.90;;;-0.64;100.00
54554;BME280;40450;55.848;-3.572;2023-02-01T05:07:28;99075.42;;;-0.74;100.00
54554;BME280;40450;55.848;-3.572;2023-02-01T05:09:57;99098.34;;;-0.46;100.00
54554;BME280;40450;55.848;-3.572;2023-02-01T05:12:27;99071.94;;;-0.34;100.00
54554;BME280;40450;55.848;-3.572;2023-02-01T05:14:58;99090.05;;;0.60;100.00
54554;BME280;40450;55.848;-3.572;2023-02-01T05:17:28;99083.46;;;-0.58;100.00
54554;BME280;40450;55.848;-3.572;2023-02-01T05:19:59;99099.79;;;-3.50;100.00
54554;BME280;40450;55.848;-3.572;2023-02-01T05:22:29;99094.32;;;-2.86;100.00
54554;BME280;40450;55.848;-3.572;2023-02-01T05:25:00;99098.07;;;-3.66;100.00
54554;BME280;40450;55.848;-3.572;2023-02-01T05:27:31;99093.97;;;-3.22;100.00
54554;BME280;40450;55.848;-3.572;2023-02-01T05:30:01;99106.34;;;-3.18;100.00
54554;BME280;40450;55.848;-3.572;2023-02-01T05:32:32;99101.02;;;-3.91;100.00
54554;BME280;40450;55.848;-3.572;2023-02-01T05:35:02;99091.85;;;-3.26;100.00
54554;BME280;40450;55.848;-3.572;2023-02-01T05:37:32;99095.43;;;-4.37;100.00
54554;BME280;40450;55.848;-3.572;2023-02-01T05:40:03;99088.64;;;-2.42;100.00
54554;BME280;40450;55.848;-3.572;2023-02-01T05:42:33;99077.38;;;-1.73;100.00
54554;BME280;40450;55.848;-3.572;2023-02-01T05:45:04;99086.70;;;0.01;99.58
54554;BME280;40450;55.848;-3.572;2023-02-01T05:47:34;99076.91;;;0.38;98.12
54554;BME280;40450;55.848;-3.572;2023-02-01T05:50:06;99071.29;;;1.76;97.12
54554;BME280;40450;55.848;-3.572;2023-02-01T05:52:35;99078.22;;;1.06;97.02
54554;BME280;40450;55.848;-3.572;2023-02-01T05:55:06;99086.82;;;0.38;98.48
54554;BME280;40450;55.848;-3.572;2023-02-01T05:57:35;99091.23;;;-0.34;99.08
54554;BME280;40450;55.848;-3.572;2023-02-01T06:00:07;99097.18;;;0.95;97.57
54554;BME280;40450;55.848;-3.572;2023-02-01T06:02:36;99092.31;;;2.04;95.67
54554;BME280;40450;55.848;-3.572;2023-02-01T06:05:08;99096.09;;;3.10;94.58
54554;BME280;40450;55.848;-3.572;2023-02-01T06:07:38;99095.82;;;3.07;93.82
54554;BME280;40450;55.848;-3.572;2023-02-01T06:10:11;99103.72;;;3.84;92.14
54554;BME280;40450;55.848;-3.572;2023-02-01T06:12:47;99107.78;;;1.80;95.37
54554;BME280;40450;55.848;-3.572;2023-02-01T06:15:18;99112.79;;;3.83;93.12
54554;BME280;40450;55.848;-3.572;2023-02-01T06:17:39;99124.03;;;2.34;93.73
54554;BME280;40450;55.848;-3.572;2023-02-01T06:20:20;99124.69;;;2.62;93.72
54554;BME280;40450;55.848;-3.572;2023-02-01T06:22:42;99134.11;;;3.34;92.23
54554;BME280;40450;55.848;-3.572;2023-02-01T06:25:16;99128.01;;;3.65;91.98
54554;BME280;40450;55.848;-3.572;2023-02-01T06:32:51;99137.99;;;3.35;91.66
54554;BME280;40450;55.848;-3.572;2023-02-01T06:35:13;99139.48;;;2.68;92.46
54554;BME280;40450;55.848;-3.572;2023-02-01T06:37:43;99144.51;;;2.83;93.69
54554;BME280;40450;55.848;-3.572;2023-02-01T06:40:14;99138.47;;;3.14;92.31
54554;BME280;40450;55.848;-3.572;2023-02-01T06:42:48;99141.52;;;3.92;91.30
54554;BME280;40450;55.848;-3.572;2023-02-01T06:45:13;99138.42;;;3.44;91.94
54554;BME280;40450;55.848;-3.572;2023-02-01T06:47:44;99147.47;;;1.64;96.23
54554;BME280;40450;55.848;-3.572;2023-02-01T06:50:15;99143.19;;;0.02;97.75
54554;BME280;40450;55.848;-3.572;2023-02-01T06:52:45;99152.79;;;0.73;97.25
54554;BME280;40450;55.848;-3.572;2023-02-01T06:55:16;99153.16;;;1.20;96.38
54554;BME280;40450;55.848;-3.572;2023-02-01T06:57:46;99157.02;;;-0.31;98.82
54554;BME280;40450;55.848;-3.572;2023-02-01T07:00:18;99156.50;;;-1.42;100.00
54554;BME280;40450;55.848;-3.572;2023-02-01T07:02:48;99157.40;;;0.44;98.97
54554;BME280;40450;55.848;-3.572;2023-02-01T07:05:17;99157.00;;;-0.42;99.31
54554;BME280;40450;55.848;-3.572;2023-02-01T07:07:47;99161.97;;;1.12;96.81
54554;BME280;40450;55.848;-3.572;2023-02-01T07:10:18;99168.00;;;1.82;95.81
54554;BME280;40450;55.848;-3.572;2023-02-01T07:12:48;99173.15;;;3.03;93.35
54554;BME280;40450;55.848;-3.572;2023-02-01T07:15:18;99178.47;;;3.54;92.18
54554;BME280;40450;55.848;-3.572;2023-02-01T07:17:48;99182.30;;;4.24;91.18
54554;BME280;40450;55.848;-3.572;2023-02-01T07:20:19;99182.30;;;4.27;89.85
54554;BME280;40450;55.848;-3.572;2023-02-01T07:22:55;99185.71;;;3.20;90.70
54554;BME280;40450;55.848;-3.572;2023-02-01T07:25:20;99188.75;;;3.64;90.83
54554;BME280;40450;55.848;-3.572;2023-02-01T07:27:50;99186.97;;;3.66;90.76
54554;BME280;40450;55.848;-3.572;2023-02-01T07:30:22;99186.72;;;3.11;91.01
54554;BME280;40450;55.848;-3.572;2023-02-01T07:32:51;99185.94;;;3.49;91.11
54554;BME280;40450;55.848;-3.572;2023-02-01T07:35:22;99187.95;;;3.38;89.79
54554;BME280;40450;55.848;-3.572;2023-02-01T07:37:52;99188.52;;;3.08;90.67
54554;BME280;40450;55.848;-3.572;2023-02-01T07:40:23;99196.25;;;1.38;94.39
54554;BME280;40450;55.848;-3.572;2023-02-01T07:42:54;99192.79;;;2.44;91.80
54554;BME280;40450;55.848;-3.572;2023-02-01T07:45:24;99190.27;;;2.85;90.78
54554;BME280;40450;55.848;-3.572;2023-02-01T07:47:54;99193.11;;;2.26;91.50
54554;BME280;40450;55.848;-3.572;2023-02-01T07:50:24;99194.88;;;3.09;90.07
54554;BME280;40450;55.848;-3.572;2023-02-01T07:52:54;99201.23;;;2.81;90.60
54554;BME280;40450;55.848;-3.572;2023-02-01T07:55:25;99203.36;;;2.08;92.42
54554;BME280;40450;55.848;-3.572;2023-02-01T07:57:58;99219.49;;;2.52;91.54
54554;BME280;40450;55.848;-3.572;2023-02-01T08:00:26;99217.05;;;2.37;91.66
54554;BME280;40450;55.848;-3.572;2023-02-01T08:02:58;99229.14;;;2.14;92.31
54554;BME280;40450;55.848;-3.572;2023-02-01T08:05:27;99228.71;;;2.71;90.98
54554;BME280;40450;55.848;-3.572;2023-02-01T08:07:57;99232.43;;;2.47;91.48
54554;BME280;40450;55.848;-3.572;2023-02-01T08:10:28;99238.93;;;3.42;89.74
54554;BME280;40450;55.848;-3.572;2023-02-01T08:12:58;99245.12;;;3.27;89.79
54554;BME280;40450;55.848;-3.572;2023-02-01T08:15:29;99255.24;;;2.71;90.87
54554;BME280;40450;55.848;-3.572;2023-02-01T08:17:59;99251.44;;;3.72;89.13
54554;BME280;40450;55.848;-3.572;2023-02-01T08:20:29;99253.02;;;3.35;89.61
54554;BME280;40450;55.848;-3.572;2023-02-01T08:23:01;99256.74;;;3.21;89.37
54554;BME280;40450;55.848;-3.572;2023-02-01T08:25:31;99256.95;;;4.00;88.75
54554;BME280;40450;55.848;-3.572;2023-02-01T08:28:01;99260.51;;;3.57;89.11
54554;BME280;40450;55.848;-3.572;2023-02-01T08:30:31;99265.29;;;3.44;89.62
54554;BME280;40450;55.848;-3.572;2023-02-01T08:33:01;99270.57;;;2.42;91.52
54554;BME280;40450;55.848;-3.572;2023-02-01T08:35:32;99266.22;;;3.26;90.43
54554;BME280;40450;55.848;-3.572;2023-02-01T08:38:02;99270.03;;;2.67;90.65
54554;BME280;40450;55.848;-3.572;2023-02-01T08:40:33;99269.44;;;2.58;91.17
54554;BME280;40450;55.848;-3.572;2023-02-01T08:43:03;99272.79;;;2.45;91.18
54554;BME280;40450;55.848;-3.572;2023-02-01T08:45:33;99281.79;;;2.68;90.95
54554;BME280;40450;55.848;-3.572;2023-02-01T08:48:04;99288.78;;;2.52;90.77
54554;BME280;40450;55.848;-3.572;2023-02-01T08:50:34;99290.40;;;3.04;90.22
54554;BME280;40450;55.848;-3.572;2023-02-01T08:53:05;99291.51;;;2.41;91.14
54554;BME280;40450;55.848;-3.572;2023-02-01T08:55:35;99291.85;;;3.39;89.90
54554;BME280;40450;55.848;-3.572;2023-02-01T08:58:05;99291.09;;;3.45;89.45
54554;BME280;40450;55.848;-3.572;2023-02-01T09:00:35;99293.61;;;3.41;89.64
54554;BME280;40450;55.848;-3.572;2023-02-01T09:03:08;99299.05;;;3.61;89.08
54554;BME280;40450;55.848;-3.572;2023-02-01T09:05:36;99302.03;;;3.93;88.35
54554;BME280;40450;55.848;-3.572;2023-02-01T09:08:07;99298.75;;;3.93;88.73
54554;BME280;40450;55.848;-3.572;2023-02-01T09:10:37;99308.45;;;3.59;89.11
54554;BME280;40450;55.848;-3.572;2023-02-01T09:13:08;99308.71;;;3.42;89.59
54554;BME280;40450;55.848;-3.572;2023-02-01T09:15:38;99314.78;;;3.74;89.71
54554;BME280;40450;55.848;-3.572;2023-02-01T09:18:08;99314.23;;;3.24;90.18
54554;BME280;40450;55.848;-3.572;2023-02-01T09:20:39;99316.84;;;3.70;89.36
54554;BME280;40450;55.848;-3.572;2023-02-01T09:23:09;99320.72;;;3.54;89.52
54554;BME280;40450;55.848;-3.572;2023-02-01T09:25:39;99317.07;;;4.34;88.01
54554;BME280;40450;55.848;-3.572;2023-02-01T09:28:10;99323.18;;;4.47;87.18
54554;BME280;40450;55.848;-3.572;2023-02-01T09:30:40;99322.50;;;4.62;86.81
54554;BME280;40450;55.848;-3.572;2023-02-01T09:33:11;99323.43;;;3.98;87.78
54554;BME280;40450;55.848;-3.572;2023-02-01T09:35:41;99324.37;;;5.17;86.62
54554;BME280;40450;55.848;-3.572;2023-02-01T09:38:12;99327.38;;;5.07;85.47
54554;BME280;40450;55.848;-3.572;2023-02-01T09:40:46;99326.27;;;4.55;86.66
54554;BME280;40450;55.848;-3.572;2023-02-01T09:43:21;99326.62;;;4.80;86.01
54554;BME280;40450;55.848;-3.572;2023-02-01T09:45:51;99332.53;;;4.85;85.67
54554;BME280;40450;55.848;-3.572;2023-02-01T09:48:16;99342.47;;;4.89;85.83
54554;BME280;40450;55.848;-3.572;2023-02-01T09:50:47;99338.65;;;4.71;86.63
54554;BME280;40450;55.848;-3.572;2023-02-01T09:53:20;99340.93;;;5.37;85.32
54554;BME280;40450;55.848;-3.572;2023-02-01T09:55:46;99348.00;;;4.29;86.79
54554;BME280;40450;55.848;-3.572;2023-02-01T09:58:20;99345.03;;;4.19;87.60
54554;BME280;40450;55.848;-3.572;2023-02-01T10:00:52;99352.75;;;4.23;87.55
54554;BME280;40450;55.848;-3.572;2023-02-01T10:03:16;99356.29;;;3.68;89.02
54554;BME280;40450;55.848;-3.572;2023-02-01T10:06:00;99357.18;;;3.90;88.91
54554;BME280;40450;55.848;-3.572;2023-02-01T10:08:23;99365.08;;;4.03;88.08
54554;BME280;40450;55.848;-3.572;2023-02-01T10:11:00;99362.80;;;4.60;87.06
54554;BME280;40450;55.848;-3.572;2023-02-01T10:15:55;99362.98;;;5.45;85.03
54554;BME280;40450;55.848;-3.572;2023-02-01T10:20:57;99366.53;;;5.12;86.20
54554;BME280;40450;55.848;-3.572;2023-02-01T10:23:32;99373.67;;;4.76;86.54
54554;BME280;40450;55.848;-3.572;2023-02-01T10:25:54;99380.20;;;4.02;88.07
54554;BME280;40450;55.848;-3.572;2023-02-01T10:28:21;99376.56;;;4.60;87.37
54554;BME280;40450;55.848;-3.572;2023-02-01T10:30:54;99379.78;;;4.44;87.60
54554;BME280;40450;55.848;-3.572;2023-02-01T10:33:24;99380.54;;;4.06;87.79
54554;BME280;40450;55.848;-3.572;2023-02-01T10:35:54;99380.95;;;4.41;88.20
54554;BME280;40450;55.848;-3.572;2023-02-01T10:38:25;99392.15;;;4.49;88.00
54554;BME280;40450;55.848;-3.572;2023-02-01T10:40:53;99391.88;;;3.95;89.75
54554;BME280;40450;55.848;-3.572;2023-02-01T10:43:22;99388.29;;;4.99;87.64
54554;BME280;40450;55.848;-3.572;2023-02-01T10:45:52;99393.01;;;5.11;87.27
54554;BME280;40450;55.848;-3.572;2023-02-01T10:48:23;99391.12;;;4.70;87.85
54554;BME280;40450;55.848;-3.572;2023-02-01T10:50:56;99391.00;;;5.49;86.75
54554;BME280;40450;55.848;-3.572;2023-02-01T10:53:28;99388.04;;;4.28;88.60
54554;BME280;40450;55.848;-3.572;2023-02-01T10:55:55;99388.96;;;4.59;88.37
54554;BME280;40450;55.848;-3.572;2023-02-01T10:58:28;99391.41;;;5.46;86.31
54554;BME280;40450;55.848;-3.572;2023-02-01T11:00:57;99390.23;;;4.40;87.91
54554;BME280;40450;55.848;-3.572;2023-02-01T11:03:32;99395.68;;;3.61;90.20
54554;BME280;40450;55.848;-3.572;2023-02-01T11:05:56;99387.59;;;4.71;88.17
54554;BME280;40450;55.848;-3.572;2023-02-01T11:08:26;99405.57;;;3.09;91.75
54554;BME280;40450;55.848;-3.572;2023-02-01T11:11:00;99401.97;;;4.69;89.01
54554;BME280;40450;55.848;-3.572;2023-02-01T11:13:30;99406.99;;;4.91;87.90
54554;BME280;40450;55.848;-3.572;2023-02-01T11:15:57;99412.31;;;4.63;88.36
54554;BME280;40450;55.848;-3.572;2023-02-01T11:18:30;99408.41;;;4.70;87.74
54554;BME280;40450;55.848;-3.572;2023-02-01T11:20:59;99408.10;;;4.53;88.55
54554;BME280;40450;55.848;-3.572;2023-02-01T11:23:30;99408.65;;;4.50;88.08
54554;BME280;40450;55.848;-3.572;2023-02-01T11:26:00;99411.18;;;3.07;91.27
54554;BME280;40450;55.848;-3.572;2023-02-01T11:28:31;99411.34;;;4.38;88.79
54554;BME280;40450;55.848;-3.572;2023-02-01T11:31:01;99404.84;;;4.39;89.62
54554;BME280;40450;55.848;-3.572;2023-02-01T11:33:32;99415.89;;;4.32;88.70
54554;BME280;40450;55.848;-3.572;2023-02-01T11:36:00;99410.43;;;4.10;90.06
54554;BME280;40450;55.848;-3.572;2023-02-01T11:38:32;99405.70;;;4.65;87.99
54554;BME280;40450;55.848;-3.572;2023-02-01T11:43:31;99416.89;;;4.13;90.21
54554;BME280;40450;55.848;-3.572;2023-02-01T11:46:08;99413.87;;;4.30;88.95
54554;BME280;40450;55.848;-3.572;2023-02-01T11:48:33;99414.29;;;4.22;89.01
54554;BME280;40450;55.848;-3.572;2023-02-01T11:51:18;99412.58;;;4.51;89.45
54554;BME280;40450;55.848;-3.572;2023-02-01T11:53:43;99415.43;;;3.38;91.20
54554;BME280;40450;55.848;-3.572;2023-02-01T11:56:11;99414.42;;;4.27;89.55
54554;BME280;40450;55.848;-3.572;2023-02-01T11:58:43;99418.02;;;4.04;89.09
54554;BME280;40450;55.848;-3.572;2023-02-01T12:01:16;99422.43;;;3.26;92.28
54554;BME280;40450;55.848;-3.572;2023-02-01T12:03:50;99422.33;;;4.17;89.99
54554;BME280;40450;55.848;-3.572;2023-02-01T12:06:10;99423.57;;;5.51;87.68
54554;BME280;40450;55.848;-3.572;2023-02-01T12:08:52;99418.36;;;4.63;89.74
54554;BME280;40450;55.848;-3.572;2023-02-01T12:11:20;99420.68;;;4.61;89.42
54554;BME280;40450;55.848;-3.572;2023-02-01T12:13:45;99424.23;;;6.18;85.64
54554;BME280;40450;55.848;-3.572;2023-02-01T12:16:15;99427.73;;;4.48;87.74
54554;BME280;40450;55.848;-3.572;2023-02-01T12:18:48;99428.52;;;3.84;89.81
54554;BME280;40450;55.848;-3.572;2023-02-01T12:21:17;99428.07;;;3.39;90.81
54554;BME280;40450;55.848;-3.572;2023-02-01T12:23:48;99426.34;;;3.24;90.58
54554;BME280;40450;55.848;-3.572;2023-02-01T12:31:17;99422.14;;;4.24;88.90
54554;BME280;40450;55.848;-3.572;2023-02-01T12:33:49;99417.45;;;5.14;86.91
54554;BME280;40450;55.848;-3.572;2023-02-01T12:36:14;99414.15;;;5.62;86.30
54554;BME280;40450;55.848;-3.572;2023-02-01T12:38:50;99411.13;;;5.16;87.51
54554;BME280;40450;55.848;-3.572;2023-02-01T12:41:20;99404.94;;;5.22;87.01
54554;BME280;40450;55.848;-3.572;2023-02-01T12:43:45;99416.05;;;5.33;86.35
54554;BME280;40450;55.848;-3.572;2023-02-01T12:46:13;99407.04;;;4.70;88.62
54554;BME280;40450;55.848;-3.572;2023-02-01T12:48:47;99404.15;;;4.06;88.43
54554;BME280;40450;55.848;-3.572;2023-02-01T12:51:14;99405.07;;;3.71;88.97
54554;BME280;40450;55.848;-3.572;2023-02-01T12:53:45;99398.48;;;4.08;87.73
54554;BME280;40450;55.848;-3.572;2023-02-01T12:56:16;99397.04;;;4.18;87.74
54554;BME280;40450;55.848;-3.572;2023-02-01T12:58:45;99391.59;;;3.97;88.74
54554;BME280;40450;55.848;-3.572;2023-02-01T13:01:18;99388.98;;;4.38;87.71
54554;BME280;40450;55.848;-3.572;2023-02-01T13:03:52;99394.23;;;3.78;89.06
54554;BME280;40450;55.848;-3.572;2023-02-01T13:06:18;99388.11;;;4.14;87.97
54554;BME280;40450;55.848;-3.572;2023-02-01T13:08:48;99386.36;;;3.59;89.13
54554;BME280;40450;55.848;-3.572;2023-02-01T13:11:18;99378.51;;;4.06;88.11
54554;BME280;40450;55.848;-3.572;2023-02-01T13:13:53;99382.77;;;4.04;88.49
54554;BME280;40450;55.848;-3.572;2023-02-01T13:16:24;99395.22;;;5.18;86.34
54554;BME280;40450;55.848;-3.572;2023-02-01T13:18:50;99386.15;;;4.58;86.76
54554;BME280;40450;55.848;-3.572;2023-02-01T13:21:21;99398.21;;;3.63;88.66
54554;BME280;40450;55.848;-3.572;2023-02-01T13:23:48;99400.30;;;3.17;90.35
54554;BME280;40450;55.848;-3.572;2023-02-01T13:26:17;99395.45;;;3.27;89.30
54554;BME280;40450;55.848;-3.572;2023-02-01T13:28:50;99391.67;;;4.48;86.98
54554;BME280;40450;55.848;-3.572;2023-02-01T13:31:29;99403.43;;;3.84;87.75
54554;BME280;40450;55.848;-3.572;2023-02-01T13:36:28;99390.64;;;3.94;87.77
54554;BME280;40450;55.848;-3.572;2023-02-01T13:39:04;99394.97;;;4.09;87.98
54554;BME280;40450;55.848;-3.572;2023-02-01T13:41:27;99392.83;;;4.84;86.39
54554;BME280;40450;55.848;-3.572;2023-02-01T13:43:52;99383.13;;;4.58;85.93